Time;durP1;ratioP1;P1;durP2;ratioP2;P2;SDS_P1;SDS_P2;PMS_P1;PMS_P2;Temp;Humidity;BMP_temperature;BMP_pressure;BME280_temperature;BME280_humidity;BME280_pressure;Samples;Min_cycle;Max_cycle;Signal;HPM_P1;HPM_P2
2022/03/10 00:00:09;;;;;;;11.33;8.03;;;0.60;99.90;;;;;;5106296;27;20184;-73
2022/03/10 00:02:35;;;;;;;10.37;7.50;;;0.60;99.90;;;;;;5105635;28;20188;-73
2022/03/10 00:05:01;;;;;;;10.93;7.57;;;0.50;99.90;;;;;;5105278;27;20211;-72
2022/03/10 00:07:26;;;;;;;12.03;7.67;;;0.60;99.90;;;;;;5106177;28;20187;-73
2022/03/10 00:09:52;;;;;;;11.07;7.73;;;0.60;99.90;;;;;;5105404;28;20184;-73
2022/03/10 00:12:19;;;;;;;11.90;7.87;;;0.50;99.90;;;;;;5105871;27;20240;-72
2022/03/10 00:14:44;;;;;;;10.63;7.83;;;0.50;99.90;;;;;;5104886;28;20196;-72
2022/03/10 00:17:10;;;;;;;11.77;7.83;;;0.50;99.90;;;;;;5105406;28;20272;-73
2022/03/10 00:19:35;;;;;;;11.83;7.37;;;0.40;99.90;;;;;;5105084;27;20182;-73
2022/03/10 00:22:01;;;;;;;9.33;6.77;;;0.50;99.90;;;;;;5105320;28;20187;-72
2022/03/10 00:24:26;;;;;;;12.20;8.07;;;0.40;99.90;;;;;;5105039;28;20640;-72
2022/03/10 00:26:52;;;;;;;11.80;7.90;;;0.40;99.90;;;;;;5105217;28;20481;-73
2022/03/10 00:29:18;;;;;;;10.77;7.53;;;0.40;99.90;;;;;;5105709;27;20180;-72
2022/03/10 00:31:43;;;;;;;10.37;8.20;;;0.30;99.90;;;;;;5104855;28;20191;-73
2022/03/10 00:34:09;;;;;;;10.00;7.47;;;0.30;99.90;;;;;;5105058;27;20233;-72
2022/03/10 00:36:35;;;;;;;10.60;6.97;;;0.30;99.90;;;;;;5104936;28;20272;-72
2022/03/10 00:39:02;;;;;;;10.07;7.00;;;0.30;99.90;;;;;;5105760;28;20212;-73
2022/03/10 00:41:28;;;;;;;11.57;7.27;;;0.20;99.90;;;;;;5104572;28;20233;-73
2022/03/10 00:43:53;;;;;;;10.43;7.27;;;0.20;99.90;;;;;;5104797;28;20691;-73
2022/03/10 00:46:19;;;;;;;12.57;7.93;;;0.00;99.90;;;;;;5105247;28;20940;-73
2022/03/10 00:48:45;;;;;;;11.10;7.37;;;-0.10;99.90;;;;;;5105321;28;20966;-73
2022/03/10 00:51:10;;;;;;;10.33;7.20;;;-0.30;99.90;;;;;;5104744;28;20281;-73
2022/03/10 00:53:36;;;;;;;12.10;7.43;;;-0.30;99.90;;;;;;5104669;28;20257;-73
2022/03/10 00:56:02;;;;;;;11.87;7.67;;;-0.40;99.90;;;;;;5104898;28;20253;-73
2022/03/10 00:58:27;;;;;;;11.20;7.60;;;-0.40;99.90;;;;;;5104955;28;20223;-72
2022/03/10 01:00:53;;;;;;;9.67;7.17;;;-0.40;99.90;;;;;;5105297;28;20192;-72
2022/03/10 01:03:19;;;;;;;10.63;7.30;;;-0.30;99.90;;;;;;5105715;28;20191;-72
2022/03/10 01:05:45;;;;;;;12.33;8.00;;;-0.40;99.90;;;;;;5105080;28;20314;-72
2022/03/10 01:08:12;;;;;;;12.27;8.17;;;-0.30;99.90;;;;;;5105561;28;20540;-72
2022/03/10 01:10:38;;;;;;;15.10;7.70;;;-0.30;99.90;;;;;;5104671;28;20191;-72
2022/03/10 01:13:11;;;;;;;11.40;7.67;;;-0.50;99.90;;;;;;5104878;28;20199;-74
2022/03/10 01:15:37;;;;;;;12.07;8.10;;;-0.40;99.90;;;;;;5085777;28;20621;-72
2022/03/10 01:18:02;;;;;;;12.70;7.90;;;-0.40;99.90;;;;;;5104600;28;20239;-72
2022/03/10 01:20:28;;;;;;;11.77;7.43;;;-0.40;99.90;;;;;;5105028;28;20255;-72
2022/03/10 01:22:54;;;;;;;13.93;8.63;;;-0.40;99.90;;;;;;5105037;28;20245;-73
2022/03/10 01:25:19;;;;;;;11.03;7.80;;;-0.50;99.90;;;;;;5104181;28;20568;-72
2022/03/10 01:27:46;;;;;;;10.13;7.93;;;-0.50;99.90;;;;;;5105080;28;20233;-72
2022/03/10 01:30:13;;;;;;;10.50;7.50;;;-0.50;99.90;;;;;;5104761;28;20226;-72
2022/03/10 01:32:39;;;;;;;12.40;7.83;;;-0.50;99.90;;;;;;5104857;28;20215;-72
2022/03/10 01:35:06;;;;;;;12.67;8.33;;;-0.50;99.90;;;;;;5104431;28;20323;-72
2022/03/10 01:37:37;;;;;;;12.33;8.33;;;-0.50;99.90;;;;;;5104423;28;20228;-71
2022/03/10 01:40:05;;;;;;;11.33;7.70;;;-0.40;99.90;;;;;;5086217;28;20220;-73
2022/03/10 01:42:30;;;;;;;12.03;8.30;;;-0.30;99.90;;;;;;5104564;28;20215;-72
2022/03/10 01:44:56;;;;;;;11.37;7.70;;;-0.40;99.90;;;;;;5104231;28;20651;-72
2022/03/10 01:47:22;;;;;;;11.27;7.60;;;-0.30;99.90;;;;;;5104593;28;20242;-73
2022/03/10 01:49:48;;;;;;;10.27;7.30;;;-0.30;99.90;;;;;;5104713;28;20691;-73
2022/03/10 01:52:15;;;;;;;12.03;8.10;;;-0.30;99.90;;;;;;5104194;28;20192;-72
2022/03/10 01:54:41;;;;;;;12.20;7.90;;;-0.30;99.90;;;;;;5103997;28;20200;-72
2022/03/10 01:57:07;;;;;;;11.13;7.73;;;-0.40;99.90;;;;;;5104449;28;20685;-73
2022/03/10 01:59:33;;;;;;;13.43;8.20;;;-0.40;99.90;;;;;;5086158;28;20604;-72
2022/03/10 02:01:59;;;;;;;12.63;8.03;;;-0.40;99.90;;;;;;5106962;27;20176;-72
2022/03/10 02:04:24;;;;;;;12.23;7.97;;;-0.30;99.90;;;;;;5107539;27;20309;-73
2022/03/10 02:06:51;;;;;;;10.50;7.77;;;-0.30;99.90;;;;;;5108142;27;20219;-72
2022/03/10 02:12:20;;;;;;;11.47;8.00;;;-0.30;99.90;;;;;;5024523;28;20186;-72
2022/03/10 02:17:30;;;;;;;11.67;7.53;;;-0.40;99.90;;;;;;5072708;27;20241;-74
2022/03/10 02:19:58;;;;;;;10.70;7.83;;;-0.30;99.90;;;;;;5107676;28;20180;-72
2022/03/10 02:22:25;;;;;;;12.50;8.13;;;-0.40;99.90;;;;;;5107707;27;20182;-72
2022/03/10 02:24:52;;;;;;;10.87;8.00;;;-0.50;99.90;;;;;;5106935;27;20256;-72
2022/03/10 02:27:23;;;;;;;11.17;7.80;;;-0.60;99.90;;;;;;5107811;27;20176;-74
2022/03/10 02:30:00;;;;;;;11.73;8.30;;;-0.60;99.90;;;;;;5109950;28;20739;-72
2022/03/10 02:32:26;;;;;;;9.53;7.47;;;-0.70;99.90;;;;;;5107411;27;20180;-72
2022/03/10 02:34:52;;;;;;;12.23;7.60;;;-0.80;99.90;;;;;;5088866;28;20554;-72
2022/03/10 02:37:17;;;;;;;10.97;7.53;;;-0.80;99.90;;;;;;5107435;27;20212;-74
2022/03/10 02:39:45;;;;;;;12.30;8.37;;;-0.90;99.90;;;;;;5107334;27;20224;-73
2022/03/10 02:42:12;;;;;;;10.63;7.63;;;-0.90;99.90;;;;;;5108433;27;21066;-72
2022/03/10 02:44:43;;;;;;;11.33;7.93;;;-0.90;99.90;;;;;;5106540;28;20200;-73
2022/03/10 02:47:09;;;;;;;10.83;7.30;;;-1.00;99.90;;;;;;5107535;27;20229;-72
2022/03/10 02:49:35;;;;;;;11.57;7.70;;;-1.00;99.90;;;;;;5080685;28;20179;-72
2022/03/10 02:52:03;;;;;;;9.80;6.63;;;-0.90;99.90;;;;;;5088531;28;20188;-72
2022/03/10 02:54:29;;;;;;;10.63;7.07;;;-0.80;99.90;;;;;;5106659;27;20282;-72
2022/03/10 02:56:55;;;;;;;10.10;7.53;;;-0.70;99.90;;;;;;5106413;28;20177;-72
2022/03/10 02:59:20;;;;;;;10.13;7.63;;;-0.80;99.90;;;;;;5107090;27;20188;-72
2022/03/10 03:01:46;;;;;;;11.10;7.90;;;-0.90;99.90;;;;;;5106760;28;20196;-73
2022/03/10 03:04:12;;;;;;;10.00;7.87;;;-0.90;99.90;;;;;;5106513;27;20181;-72
2022/03/10 03:06:37;;;;;;;9.63;7.17;;;-1.00;99.90;;;;;;5106314;27;20181;-75
2022/03/10 03:09:03;;;;;;;10.47;7.33;;;-1.00;99.90;;;;;;5107046;28;20670;-72
2022/03/10 03:11:29;;;;;;;11.10;7.67;;;-1.00;99.90;;;;;;5106242;28;20320;-73
2022/03/10 03:13:56;;;;;;;11.77;8.30;;;-1.00;99.90;;;;;;5105939;27;20286;-72
2022/03/10 03:16:23;;;;;;;12.97;7.73;;;-1.10;99.90;;;;;;5106578;28;20215;-72
2022/03/10 03:18:49;;;;;;;11.30;8.00;;;-1.00;99.90;;;;;;5106250;28;20683;-72
2022/03/10 03:21:14;;;;;;;11.77;7.97;;;-1.00;99.90;;;;;;5106324;27;20300;-72
2022/03/10 03:23:40;;;;;;;11.23;8.07;;;-1.00;99.90;;;;;;5106229;27;20176;-72
2022/03/10 03:26:06;;;;;;;11.20;7.63;;;-1.00;99.90;;;;;;5105947;28;20291;-75
2022/03/10 03:28:31;;;;;;;9.57;6.87;;;-1.00;99.90;;;;;;5106822;28;20626;-71
2022/03/10 03:30:57;;;;;;;11.87;7.83;;;-1.10;99.90;;;;;;5105827;27;20534;-72
2022/03/10 03:33:22;;;;;;;11.93;8.03;;;-1.20;99.90;;;;;;5106316;27;20251;-72
2022/03/10 03:35:48;;;;;;;11.87;8.13;;;-1.30;99.90;;;;;;5087529;28;20208;-74
2022/03/10 03:38:13;;;;;;;13.10;8.63;;;-1.20;99.90;;;;;;5106660;27;20192;-74
2022/03/10 03:40:40;;;;;;;12.30;8.90;;;-1.20;99.90;;;;;;5105724;28;20501;-73
2022/03/10 03:43:06;;;;;;;15.00;9.17;;;-1.40;99.90;;;;;;5106142;28;20225;-72
2022/03/10 03:45:32;;;;;;;12.13;9.17;;;-1.50;99.90;;;;;;5104642;28;20204;-72
2022/03/10 03:47:57;;;;;;;12.07;8.87;;;-1.60;99.90;;;;;;5106068;27;20220;-73
2022/03/10 03:50:23;;;;;;;12.23;8.27;;;-1.60;99.90;;;;;;5103177;28;20262;-72
2022/03/10 03:52:49;;;;;;;12.47;8.90;;;-1.70;99.90;;;;;;5103782;28;20539;-72
2022/03/10 03:55:15;;;;;;;12.00;8.77;;;-1.60;99.90;;;;;;5103877;28;20208;-73
2022/03/10 03:57:41;;;;;;;14.70;10.10;;;-1.60;99.90;;;;;;5104728;28;20234;-72
2022/03/10 04:00:09;;;;;;;14.13;8.97;;;-1.60;99.90;;;;;;5105304;28;20183;-73
2022/03/10 04:02:36;;;;;;;13.37;9.07;;;-1.60;99.90;;;;;;5104837;28;20682;-72
2022/03/10 04:05:03;;;;;;;13.83;9.20;;;-1.50;99.90;;;;;;5102654;28;20204;-72
2022/03/10 04:07:28;;;;;;;16.17;11.00;;;-1.50;99.90;;;;;;5105329;28;20187;-72
2022/03/10 04:09:54;;;;;;;13.67;9.63;;;-1.50;99.90;;;;;;5104759;28;20184;-72
2022/03/10 04:12:19;;;;;;;17.63;10.47;;;-1.50;99.90;;;;;;5104789;28;20631;-72
2022/03/10 04:14:45;;;;;;;13.73;9.90;;;-1.50;99.90;;;;;;5103411;27;20208;-72
2022/03/10 04:17:11;;;;;;;14.10;9.60;;;-1.50;99.90;;;;;;5104806;28;20207;-74
2022/03/10 04:19:36;;;;;;;17.07;10.37;;;-1.40;99.90;;;;;;5104974;28;20180;-74
2022/03/10 04:22:03;;;;;;;14.33;10.17;;;-1.40;99.90;;;;;;5104575;28;20173;-74
2022/03/10 04:24:29;;;;;;;14.27;10.37;;;-1.30;99.90;;;;;;5105047;28;20207;-72
2022/03/10 04:26:55;;;;;;;16.27;9.93;;;-1.30;99.90;;;;;;5104073;28;20631;-72
2022/03/10 04:29:20;;;;;;;13.77;9.63;;;-1.30;99.90;;;;;;5104707;28;20215;-72
2022/03/10 04:31:46;;;;;;;14.30;10.13;;;-1.30;99.90;;;;;;5102542;28;20211;-73
2022/03/10 04:34:12;;;;;;;16.13;9.27;;;-1.20;99.90;;;;;;5102343;28;20628;-73
2022/03/10 04:36:37;;;;;;;16.73;10.70;;;-1.30;99.90;;;;;;5102823;28;20191;-73
2022/03/10 04:39:04;;;;;;;14.37;9.93;;;-1.40;99.90;;;;;;5103439;27;20298;-72
2022/03/10 04:41:30;;;;;;;14.73;9.67;;;-1.40;99.90;;;;;;5103301;28;20189;-72
2022/03/10 04:43:55;;;;;;;13.13;9.87;;;-1.50;99.90;;;;;;5103117;28;20255;-73
2022/03/10 04:46:21;;;;;;;16.63;9.87;;;-1.40;99.90;;;;;;5103419;28;20228;-73
2022/03/10 04:48:46;;;;;;;14.70;10.37;;;-1.40;99.90;;;;;;5104070;28;20187;-73
2022/03/10 04:51:12;;;;;;;14.40;9.93;;;-1.50;99.90;;;;;;5104618;28;20649;-72
2022/03/10 04:53:38;;;;;;;15.37;9.53;;;-1.50;99.90;;;;;;5104153;28;20233;-73
2022/03/10 04:56:04;;;;;;;12.70;8.93;;;-1.50;99.90;;;;;;5104272;28;20313;-73
2022/03/10 04:58:30;;;;;;;14.97;10.60;;;-1.70;99.90;;;;;;5105058;28;20228;-73
2022/03/10 05:00:55;;;;;;;16.57;10.23;;;-1.70;99.90;;;;;;5104080;28;20206;-74
2022/03/10 05:03:21;;;;;;;14.20;9.67;;;-1.70;99.90;;;;;;5103760;28;20619;-74
2022/03/10 05:05:47;;;;;;;14.37;10.33;;;-1.60;99.90;;;;;;5084392;28;20272;-75
2022/03/10 05:08:13;;;;;;;13.67;9.70;;;-1.60;99.90;;;;;;5103869;28;20271;-74
2022/03/10 05:10:39;;;;;;;13.93;10.13;;;-1.70;99.90;;;;;;5103997;28;20275;-74
2022/03/10 05:13:04;;;;;;;13.87;9.50;;;-1.60;99.90;;;;;;5104593;28;20527;-74
2022/03/10 05:15:31;;;;;;;13.90;9.57;;;-1.60;99.90;;;;;;5103811;28;20200;-74
2022/03/10 05:18:02;;;;;;;16.57;9.73;;;-1.70;99.90;;;;;;5104528;28;20214;-74
2022/03/10 05:20:28;;;;;;;14.50;10.10;;;-1.70;99.90;;;;;;5104092;28;20184;-74
2022/03/10 05:22:57;;;;;;;11.97;9.20;;;-1.70;99.90;;;;;;5104596;28;20183;-74
2022/03/10 05:25:25;;;;;;;13.93;9.67;;;-1.60;99.90;;;;;;5103408;28;20203;-73
2022/03/10 05:27:52;;;;;;;13.53;9.37;;;-1.60;99.90;;;;;;5086117;28;20176;-74
2022/03/10 05:30:19;;;;;;;14.50;9.77;;;-1.60;99.90;;;;;;5104606;28;20188;-74
2022/03/10 05:32:45;;;;;;;14.13;9.90;;;-1.60;99.90;;;;;;5104493;28;20194;-74
2022/03/10 05:35:17;;;;;;;14.93;9.40;;;-1.60;99.90;;;;;;5085366;28;20554;-73
2022/03/10 05:37:44;;;;;;;14.10;9.67;;;-1.50;99.90;;;;;;5107823;27;20207;-74
2022/03/10 05:40:13;;;;;;;14.40;9.57;;;-1.40;99.90;;;;;;5107950;27;20183;-73
2022/03/10 05:42:40;;;;;;;14.33;9.30;;;-1.50;99.90;;;;;;5108103;27;20187;-74
2022/03/10 05:45:07;;;;;;;13.90;9.43;;;-1.50;99.90;;;;;;5107652;27;20192;-74
2022/03/10 05:47:34;;;;;;;13.60;9.70;;;-1.50;99.90;;;;;;5107992;28;20266;-74
2022/03/10 05:50:00;;;;;;;12.83;9.10;;;-1.60;99.90;;;;;;5085232;28;20180;-74
2022/03/10 05:52:25;;;;;;;13.70;9.23;;;-1.50;99.90;;;;;;5107980;27;20180;-74
2022/03/10 05:54:51;;;;;;;13.80;8.67;;;-1.50;99.90;;;;;;5088746;28;20214;-74
2022/03/10 05:57:16;;;;;;;12.77;8.90;;;-1.50;99.90;;;;;;5107847;27;20200;-73
2022/03/10 05:59:42;;;;;;;11.27;8.90;;;-1.50;99.90;;;;;;5108078;27;20245;-73
2022/03/10 06:02:08;;;;;;;15.03;10.30;;;-1.50;99.90;;;;;;5107656;27;20179;-74
2022/03/10 06:04:33;;;;;;;12.63;9.30;;;-1.50;99.90;;;;;;5106982;27;20203;-73
2022/03/10 06:07:00;;;;;;;16.00;9.50;;;-1.50;99.90;;;;;;5107546;28;20176;-73
2022/03/10 06:09:25;;;;;;;15.20;9.43;;;-1.50;99.90;;;;;;5107710;27;20168;-74
2022/03/10 06:11:51;;;;;;;14.33;9.40;;;-1.40;99.90;;;;;;5107238;27;20180;-74
2022/03/10 06:14:18;;;;;;;14.13;9.43;;;-1.50;99.90;;;;;;5106980;27;20202;-73
2022/03/10 06:16:44;;;;;;;14.27;10.33;;;-1.40;99.90;;;;;;5104130;28;20711;-73
2022/03/10 06:19:09;;;;;;;15.70;10.27;;;-1.40;99.90;;;;;;5108784;27;20294;-73
2022/03/10 06:21:35;;;;;;;16.07;9.60;;;-1.30;99.90;;;;;;5088402;28;20263;-73
2022/03/10 06:24:01;;;;;;;13.50;9.60;;;-1.20;99.90;;;;;;5087979;28;20173;-75
2022/03/10 06:26:27;;;;;;;14.77;9.30;;;-1.10;99.90;;;;;;5106416;27;20631;-73
2022/03/10 06:28:52;;;;;;;15.80;9.60;;;-1.10;99.90;;;;;;5107108;27;20192;-73
2022/03/10 06:31:19;;;;;;;14.53;9.43;;;-1.10;99.90;;;;;;5106491;27;20184;-73
2022/03/10 06:33:44;;;;;;;14.03;9.83;;;-1.10;99.90;;;;;;5106710;28;20279;-74
2022/03/10 06:36:11;;;;;;;15.83;10.23;;;-1.10;99.90;;;;;;5106120;27;20307;-74
2022/03/10 06:38:37;;;;;;;15.93;9.90;;;-1.00;99.90;;;;;;5106726;27;20196;-74
2022/03/10 06:41:03;;;;;;;16.00;9.60;;;-0.90;99.90;;;;;;5106163;27;20180;-73
2022/03/10 06:43:29;;;;;;;14.00;9.97;;;-0.90;99.90;;;;;;5106241;27;20167;-74
2022/03/10 06:45:54;;;;;;;13.67;9.20;;;-0.70;99.90;;;;;;5105908;28;20254;-74
2022/03/10 06:48:20;;;;;;;14.30;9.60;;;-0.60;99.90;;;;;;5105899;28;20184;-74
2022/03/10 06:50:46;;;;;;;18.27;9.70;;;-0.60;99.90;;;;;;5104684;28;20184;-74
2022/03/10 06:53:13;;;;;;;13.33;9.60;;;-0.50;99.90;;;;;;5105696;27;20215;-74
2022/03/10 06:55:38;;;;;;;14.13;9.00;;;-0.40;99.90;;;;;;5105431;28;20222;-73
2022/03/10 06:58:04;;;;;;;14.43;10.20;;;-0.30;99.90;;;;;;5106140;27;20646;-73
2022/03/10 07:00:30;;;;;;;13.97;9.70;;;-0.20;99.90;;;;;;5106224;27;20176;-75
2022/03/10 07:02:56;;;;;;;17.30;9.17;;;-0.10;99.90;;;;;;5087863;28;20180;-74
2022/03/10 07:05:23;;;;;;;13.57;9.23;;;0.00;99.90;;;;;;5104366;27;20191;-74
2022/03/10 07:07:49;;;;;;;13.57;9.40;;;0.10;99.90;;;;;;5105635;27;20186;-75
2022/03/10 07:10:15;;;;;;;13.90;9.73;;;0.20;99.90;;;;;;5106396;28;20180;-74
2022/03/10 07:12:41;;;;;;;13.03;9.27;;;0.30;99.90;;;;;;5087838;28;20653;-74
2022/03/10 07:15:11;;;;;;;13.27;8.37;;;0.50;99.90;;;;;;5105852;27;20283;-74
2022/03/10 07:17:38;;;;;;;13.93;9.53;;;0.70;99.90;;;;;;5106295;28;20533;-74
2022/03/10 07:20:04;;;;;;;13.80;9.40;;;0.80;99.90;;;;;;5105843;27;20181;-75
2022/03/10 07:22:30;;;;;;;14.07;9.83;;;0.90;99.90;;;;;;5105905;27;20183;-74
2022/03/10 07:24:55;;;;;;;13.57;9.27;;;1.10;99.90;;;;;;5105622;27;20192;-74
2022/03/10 07:27:21;;;;;;;14.83;9.70;;;1.20;99.90;;;;;;5105795;27;20577;-74
2022/03/10 07:29:47;;;;;;;12.57;9.00;;;1.40;99.90;;;;;;5106104;27;20216;-73
2022/03/10 07:32:13;;;;;;;11.33;8.80;;;1.50;99.90;;;;;;5105706;27;20191;-74
2022/03/10 07:34:38;;;;;;;12.53;9.17;;;1.70;99.90;;;;;;5105493;28;20238;-74
2022/03/10 07:37:04;;;;;;;12.57;9.00;;;1.90;99.90;;;;;;5105495;27;20699;-74
2022/03/10 07:39:30;;;;;;;13.10;9.10;;;2.00;99.90;;;;;;5105947;27;20183;-75
2022/03/10 07:41:55;;;;;;;12.63;8.90;;;2.10;99.90;;;;;;5105673;28;20240;-74
2022/03/10 07:44:21;;;;;;;10.50;8.37;;;2.30;99.90;;;;;;5105204;27;20228;-74
2022/03/10 07:46:47;;;;;;;13.50;8.23;;;2.60;99.90;;;;;;5105475;28;20180;-74
2022/03/10 07:49:12;;;;;;;13.10;8.27;;;2.90;99.90;;;;;;5105840;27;21171;-74
2022/03/10 07:51:43;;;;;;;11.00;7.53;;;3.20;99.90;;;;;;5105435;28;20184;-75
2022/03/10 07:54:09;;;;;;;10.67;7.70;;;3.40;99.90;;;;;;5105231;28;20191;-75
2022/03/10 07:56:34;;;;;;;13.93;7.50;;;3.70;99.90;;;;;;5105510;27;20640;-74
2022/03/10 07:59:00;;;;;;;9.70;7.33;;;4.00;99.90;;;;;;5104848;28;20242;-74
2022/03/10 08:01:25;;;;;;;10.87;7.27;;;4.20;99.90;;;;;;5086912;28;20266;-77
2022/03/10 08:03:51;;;;;;;11.73;6.27;;;4.30;99.90;;;;;;5105757;27;20522;-74
2022/03/10 08:06:17;;;;;;;13.57;6.67;;;4.50;99.90;;;;;;5087680;28;20188;-74
2022/03/10 08:08:44;;;;;;;12.53;6.60;;;4.70;99.90;;;;;;5088018;28;20191;-75
2022/03/10 08:11:10;;;;;;;10.77;6.80;;;5.00;99.90;;;;;;5103785;28;20176;-74
2022/03/10 08:13:36;;;;;;;16.80;6.57;;;5.10;99.90;;;;;;5104045;27;20176;-74
2022/03/10 08:16:01;;;;;;;15.37;7.17;;;5.20;99.90;;;;;;5104097;27;20710;-74
2022/03/10 08:18:28;;;;;;;17.03;6.77;;;5.30;99.90;;;;;;5103497;27;20337;-75
2022/03/10 08:20:59;;;;;;;9.33;6.30;;;5.40;99.90;;;;;;5103445;28;20207;-75
2022/03/10 08:23:26;;;;;;;9.43;6.03;;;5.50;99.90;;;;;;5103694;27;20267;-73
2022/03/10 08:25:52;;;;;;;9.20;5.93;;;5.60;99.90;;;;;;5103728;28;20200;-74
2022/03/10 08:28:17;;;;;;;7.90;6.30;;;5.70;99.90;;;;;;5086291;28;20184;-74
2022/03/10 08:30:43;;;;;;;9.23;5.80;;;5.90;99.90;;;;;;5101705;28;20206;-73
2022/03/10 08:33:08;;;;;;;8.17;5.70;;;6.00;99.90;;;;;;5082422;28;20180;-75
2022/03/10 08:35:34;;;;;;;10.83;6.00;;;6.10;99.90;;;;;;5103030;28;20287;-74
2022/03/10 08:38:00;;;;;;;9.37;6.27;;;6.20;99.90;;;;;;5103936;28;20235;-74
2022/03/10 08:40:26;;;;;;;15.50;6.73;;;6.40;99.90;;;;;;5103650;28;20186;-74
2022/03/10 08:42:52;;;;;;;9.23;6.13;;;6.50;99.90;;;;;;5104291;28;20184;-74
2022/03/10 08:45:20;;;;;;;8.70;5.80;;;6.60;99.90;;;;;;5103124;28;20208;-74
2022/03/10 08:47:46;;;;;;;9.93;5.73;;;6.80;99.90;;;;;;5084643;28;20176;-74
2022/03/10 08:50:12;;;;;;;9.40;5.93;;;6.80;99.90;;;;;;5102610;28;20176;-74
2022/03/10 08:52:38;;;;;;;10.13;6.00;;;6.80;99.90;;;;;;5103212;28;20180;-74
2022/03/10 08:55:05;;;;;;;8.93;5.70;;;7.00;99.90;;;;;;5101865;28;20220;-75
2022/03/10 08:57:31;;;;;;;7.83;5.90;;;7.20;99.90;;;;;;5102454;28;20741;-75
2022/03/10 08:59:57;;;;;;;9.47;5.50;;;7.30;99.90;;;;;;5102682;28;20191;-75
2022/03/10 09:02:23;;;;;;;7.57;5.63;;;7.30;99.90;;;;;;5084204;28;20238;-75
2022/03/10 09:04:48;;;;;;;10.73;6.10;;;7.40;99.90;;;;;;5102510;28;20327;-75
2022/03/10 09:07:14;;;;;;;8.60;6.40;;;7.50;99.90;;;;;;5102425;28;20665;-75
2022/03/10 09:09:40;;;;;;;9.67;5.90;;;7.60;99.90;;;;;;5103780;27;20267;-75
2022/03/10 09:12:06;;;;;;;8.67;5.47;;;7.70;99.90;;;;;;5106918;28;20176;-75
2022/03/10 09:14:31;;;;;;;9.43;5.87;;;7.70;99.90;;;;;;5106637;27;20291;-75
2022/03/10 09:16:57;;;;;;;12.40;6.30;;;7.80;99.90;;;;;;5107066;27;20187;-76
2022/03/10 09:19:23;;;;;;;9.30;6.13;;;7.90;99.90;;;;;;5107301;27;20650;-75
2022/03/10 09:21:49;;;;;;;8.83;6.30;;;8.00;99.90;;;;;;5106949;27;20634;-75
2022/03/10 09:24:14;;;;;;;14.03;6.37;;;8.10;99.90;;;;;;5106659;27;20200;-74
2022/03/10 09:26:40;;;;;;;10.10;5.57;;;8.20;99.90;;;;;;5107002;28;20176;-74
2022/03/10 09:29:06;;;;;;;9.07;6.13;;;8.10;99.90;;;;;;5107197;27;20183;-75
2022/03/10 09:31:32;;;;;;;9.77;6.60;;;8.10;99.90;;;;;;5105320;27;20184;-74
2022/03/10 09:33:58;;;;;;;8.30;6.00;;;8.20;99.90;;;;;;5106911;27;20188;-73
2022/03/10 09:36:26;;;;;;;8.50;5.43;;;8.20;99.90;;;;;;5107084;28;20581;-73
2022/03/10 09:38:55;;;;;;;8.63;5.47;;;8.30;99.90;;;;;;5107450;27;20200;-73
2022/03/10 09:41:20;;;;;;;11.53;6.27;;;8.40;99.90;;;;;;5107139;28;20172;-74
2022/03/10 09:43:47;;;;;;;6.57;5.30;;;8.50;99.90;;;;;;5106448;27;20203;-76
2022/03/10 09:46:13;;;;;;;10.37;6.30;;;8.50;99.90;;;;;;5107000;27;20196;-75
2022/03/10 09:48:40;;;;;;;8.47;6.53;;;8.60;99.90;;;;;;5107347;27;20188;-72
2022/03/10 09:51:06;;;;;;;8.10;5.23;;;8.70;99.90;;;;;;5106966;27;20191;-76
2022/03/10 09:53:34;;;;;;;7.73;5.50;;;8.70;99.90;;;;;;5107110;27;20176;-73
2022/03/10 09:56:00;;;;;;;11.03;5.70;;;8.80;99.90;;;;;;5106637;27;20207;-73
2022/03/10 09:58:26;;;;;;;15.40;6.37;;;8.90;99.90;;;;;;5106386;27;20298;-73
2022/03/10 10:01:01;;;;;;;19.07;6.43;;;8.80;99.90;;;;;;5107410;27;20634;-75
2022/03/10 10:03:26;;;;;;;7.37;5.33;;;8.80;99.90;;;;;;5106569;27;20204;-75
2022/03/10 10:06:00;;;;;;;9.40;6.50;;;8.90;99.90;;;;;;5106952;27;20196;-75
2022/03/10 10:08:27;;;;;;;11.23;6.00;;;8.90;99.90;;;;;;5108013;27;20317;-73
2022/03/10 10:10:55;;;;;;;8.17;5.90;;;9.00;99.90;;;;;;5106493;28;20234;-73
2022/03/10 10:13:34;;;;;;;18.87;7.17;;;9.10;99.90;;;;;;5088678;27;20246;-73
2022/03/10 10:16:05;;;;;;;9.43;6.33;;;9.10;99.90;;;;;;5107492;28;20287;-72
2022/03/10 10:18:32;;;;;;;10.43;5.87;;;9.10;99.90;;;;;;5088591;27;20730;-72
2022/03/10 10:20:58;;;;;;;10.33;5.90;;;9.20;99.90;;;;;;5104404;28;20176;-73
2022/03/10 10:23:28;;;;;;;8.87;6.57;;;9.30;99.90;;;;;;5105894;27;20292;-73
2022/03/10 10:26:03;;;;;;;10.17;6.90;;;9.30;99.90;;;;;;5107554;27;20311;-74
2022/03/10 10:28:41;;;;;;;14.17;6.37;;;9.30;99.90;;;;;;5089487;27;20264;-74
2022/03/10 10:31:10;;;;;;;11.57;6.83;;;9.30;99.90;;;;;;5107647;27;20180;-73
2022/03/10 10:33:37;;;;;;;11.77;6.67;;;9.40;99.90;;;;;;5107065;27;20183;-73
2022/03/10 10:36:18;;;;;;;10.13;6.67;;;9.40;99.90;;;;;;5107715;27;20212;-73
2022/03/10 10:38:48;;;;;;;8.80;6.60;;;9.50;99.90;;;;;;5107940;27;20642;-74
2022/03/10 10:41:28;;;;;;;12.07;6.60;;;9.60;99.90;;;;;;5107048;27;20188;-74
2022/03/10 10:44:08;;;;;;;10.00;6.80;;;9.60;99.90;;;;;;5088376;28;20227;-74
2022/03/10 10:46:37;;;;;;;9.47;6.43;;;9.60;99.90;;;;;;5106761;27;20184;-74
2022/03/10 10:49:08;;;;;;;9.30;6.27;;;9.80;99.90;;;;;;5107353;27;20271;-74
2022/03/10 10:51:54;;;;;;;9.80;6.87;;;9.80;99.90;;;;;;5106736;28;20263;-74
2022/03/10 10:54:20;;;;;;;9.97;6.70;;;9.90;99.90;;;;;;5106843;27;20196;-73
2022/03/10 10:56:51;;;;;;;9.83;7.20;;;9.80;99.90;;;;;;5088704;28;20180;-74
2022/03/10 10:59:34;;;;;;;12.80;7.33;;;9.80;99.90;;;;;;5107323;27;20208;-73
2022/03/10 11:02:20;;;;;;;9.90;6.83;;;9.90;99.90;;;;;;5107085;27;20724;-75
2022/03/10 11:04:52;;;;;;;12.37;7.43;;;10.00;99.90;;;;;;5106428;27;20655;-73
2022/03/10 11:07:19;;;;;;;8.83;6.93;;;10.00;99.90;;;;;;5107305;28;20230;-74
2022/03/10 11:09:47;;;;;;;9.77;6.77;;;10.00;99.90;;;;;;5107117;27;20176;-73
2022/03/10 11:12:16;;;;;;;10.07;6.53;;;10.20;99.90;;;;;;5106788;27;20203;-74
2022/03/10 11:14:43;;;;;;;16.30;7.30;;;10.30;99.90;;;;;;5106565;28;20200;-73
2022/03/10 11:17:09;;;;;;;9.90;7.20;;;10.40;99.90;;;;;;5106837;27;20183;-73
2022/03/10 11:19:42;;;;;;;11.57;6.67;;;10.50;99.90;;;;;;5107025;27;20184;-74
2022/03/10 11:22:56;;;;;;;8.73;6.67;;;10.60;99.90;;;;;;5106529;27;20662;-74
2022/03/10 11:25:54;;;;;;;8.63;6.50;;;10.60;99.90;;;;;;5009579;27;20269;-74
2022/03/10 11:28:27;;;;;;;9.33;6.30;;;10.60;99.10;;;;;;5087345;28;20537;-75
2022/03/10 11:30:55;;;;;;;9.13;6.13;;;10.60;99.90;;;;;;5104361;27;20168;-74
2022/03/10 11:33:28;;;;;;;10.67;6.23;;;10.70;98.80;;;;;;5104348;27;20188;-74
2022/03/10 11:35:53;;;;;;;10.27;6.30;;;10.60;99.50;;;;;;5105888;27;20474;-75
2022/03/10 11:38:19;;;;;;;8.77;6.20;;;10.70;98.10;;;;;;5104288;27;20204;-74
2022/03/10 11:40:48;;;;;;;9.13;5.83;;;10.80;99.70;;;;;;5104489;27;20180;-74
2022/03/10 11:43:19;;;;;;;8.87;6.37;;;11.00;98.90;;;;;;5104432;27;20191;-74
2022/03/10 11:45:46;;;;;;;8.30;6.00;;;11.00;99.50;;;;;;5104006;27;20269;-72
2022/03/10 11:48:30;;;;;;;11.17;5.50;;;11.10;97.20;;;;;;5104382;28;20189;-73
2022/03/10 11:50:56;;;;;;;6.97;5.70;;;11.10;95.90;;;;;;5104099;28;20210;-77
2022/03/10 11:53:21;;;;;;;8.93;5.90;;;11.20;97.00;;;;;;5103632;27;20203;-74
2022/03/10 11:55:52;;;;;;;14.47;6.00;;;11.40;97.50;;;;;;5103705;28;20240;-73
2022/03/10 11:58:20;;;;;;;7.67;5.50;;;11.50;95.20;;;;;;5105070;27;20357;-73
2022/03/10 12:00:49;;;;;;;6.90;5.23;;;11.50;93.30;;;;;;5105615;28;20181;-73
2022/03/10 12:03:20;;;;;;;9.53;5.40;;;11.30;93.40;;;;;;5105497;27;20180;-76
2022/03/10 12:06:04;;;;;;;11.77;5.17;;;11.30;93.30;;;;;;5105542;27;20291;-76
2022/03/10 12:08:36;;;;;;;7.83;5.27;;;11.50;92.20;;;;;;5105644;27;20182;-74
2022/03/10 12:11:12;;;;;;;8.13;4.63;;;11.50;92.70;;;;;;5105304;27;20635;-76
2022/03/10 12:13:40;;;;;;;7.28;5.05;;;11.60;91.70;;;;;;5104799;28;20612;-75
2022/03/10 12:16:07;;;;;;;8.38;4.95;;;11.60;89.70;;;;;;5105259;27;20635;-75
2022/03/10 12:18:38;;;;;;;7.23;5.10;;;11.60;90.00;;;;;;5087707;28;20291;-74
2022/03/10 12:21:22;;;;;;;6.70;4.60;;;11.60;89.90;;;;;;5106191;27;20180;-74
2022/03/10 12:23:54;;;;;;;9.37;5.20;;;11.60;90.30;;;;;;5104709;28;20176;-73
2022/03/10 12:26:27;;;;;;;7.03;4.90;;;11.60;89.10;;;;;;5105898;27;20561;-73
2022/03/10 12:28:55;;;;;;;6.60;4.97;;;11.60;88.40;;;;;;5105785;28;20701;-72
2022/03/10 12:31:24;;;;;;;7.13;5.28;;;11.60;87.50;;;;;;5106040;28;20187;-73
2022/03/10 12:33:57;;;;;;;7.77;4.93;;;11.60;88.90;;;;;;5104698;28;20184;-73
2022/03/10 12:36:41;;;;;;;10.37;5.67;;;11.60;90.20;;;;;;5105168;28;20215;-74
2022/03/10 12:39:15;;;;;;;8.85;5.00;;;11.70;88.40;;;;;;5105118;28;20204;-74
2022/03/10 12:41:45;;;;;;;8.00;5.07;;;11.60;88.80;;;;;;5104648;28;20180;-74
2022/03/10 12:44:12;;;;;;;11.93;5.03;;;11.50;85.50;;;;;;5104489;28;20215;-73
2022/03/10 12:46:41;;;;;;;12.13;5.63;;;11.50;85.60;;;;;;5105077;28;20245;-73
2022/03/10 12:49:28;;;;;;;5.43;4.20;;;11.50;86.00;;;;;;5105063;28;20190;-73